Belle Isle — FOXN — position and weather

sailwx.info

Track history (hours):
 
Tides and Currents Weather Stations Pressure Air Temp Water Temp Dewpoint Dewpoint Depression Visibility Wind Speed Wind Dir Waves Ship Positions

Belle Isle

Last reported at 2016-May-22 09:03 UTC. Time now 2016-May-26 02:48 UTC.
Position N 47°21' W 003°09'.

Length 16 m.

Type: SAR. MMSI: 227021500.

Date/timePositionNaut miles runAvg speedWind from/ knotsBaromVisibWave heightAir tempDewpointWater temp
2016-May-22 09:03N 47°21' W 003°09'0 0.0
2016-May-21 16:07N 47°21' W 003°09'814.1
2016-May-21 15:33N 47°29' W 003°07'8 7.9
2016-May-21 14:33N 47°21' W 003°09'0 0.0
2016-May-20 02:30N 47°21' W 003°09'5 4.8
2016-May-20 01:34N 47°25' W 003°08'  
2016-May-17 14:27N 47°21' W 003°09'8 8.7
2016-May-17 13:33N 47°29' W 003°07'8 7.9
2016-May-17 12:33N 47°21' W 003°09'8 0.2
2016-May-15 10:33N 47°29' W 003°05'1110.5
2016-May-15 09:33N 47°19' W 002°60'7 6.8
2016-May-15 08:33N 47°21' W 003°09'  
Track history (hours):
 
Tides and Currents Weather Stations Pressure Air Temp Water Temp Dewpoint Dewpoint Depression Visibility Wind Speed Wind Dir Waves Ship Positions

Belle Isle

Last reported at 2016-May-22 09:03 UTC. Time now 2016-May-26 02:48 UTC.
Position N 47°21' W 003°09'.

Length 16 m.

Type: SAR. MMSI: 227021500.

Date/timePositionNaut miles runAvg speedWind from/ knotsBaromVisibWave heightAir tempDewpointWater temp
2016-May-22 09:03N 47°21' W 003°09'0 0.0
2016-May-21 16:07N 47°21' W 003°09'814.1
2016-May-21 15:33N 47°29' W 003°07'8 7.9
2016-May-21 14:33N 47°21' W 003°09'0 0.0
2016-May-20 02:30N 47°21' W 003°09'5 4.8
2016-May-20 01:34N 47°25' W 003°08'  
2016-May-17 14:27N 47°21' W 003°09'8 8.7
2016-May-17 13:33N 47°29' W 003°07'8 7.9
2016-May-17 12:33N 47°21' W 003°09'8 0.2
2016-May-15 10:33N 47°29' W 003°05'1110.5
2016-May-15 09:33N 47°19' W 002°60'7 6.8
2016-May-15 08:33N 47°21' W 003°09'  

Dump ship's entire track history